M I D A S
Marine Information and Data Acquisition System
Tripno 1245 of the Zeeleeuw from 2007-04-16 11:27:28 to 2007-04-16 14:26:46
Back to CruiseResearch ActivitiesStationsMapUnderway DataData graphs

EquipmentUnitsComments
TimeDGPSUTC
LatitudeDGPSDM.mWGS84
LongitudeDGPSDM.mWGS84
SpeedMeteo Stationm/sRelative wind speed
DirectionMeteo StationdegRelative wind direction
TemperatureMeteo Stationdeg CelciusAir temperature
PressureMeteo StationPaAtmospheric pressure
HumidityMeteo Station%Relative humidity
Missing or incorrect values are displayed as -999
Metereological data collected by the RV Zeeleeuw from 2007-04-16 08:22:18 to 2007-04-16 14:35:22
                                                                                    Next 1000 lines
Time Latitude Longitude Speed Direction Temperature Pressure Humidity
2007-04-16 08:22:28 51°13.6 2°56.096 3.5 309 13.3 102230 81
2007-04-16 08:22:33 51°13.601 2°56.094 3.8 257 13.3 102230 81
2007-04-16 08:22:38 51°13.601 2°56.091 4 310 13.3 102230 81
2007-04-16 08:22:43 51°13.602 2°56.087 3.7 270 13.3 102230 81
2007-04-16 08:22:48 51°13.603 2°56.082 2.9 304 13.3 102230 81
2007-04-16 08:22:53 51°13.604 2°56.078 2.7 256 13.3 102230 81
2007-04-16 08:22:58 51°13.605 2°56.072 2.7 303 13.3 102230 81
2007-04-16 08:23:03 51°13.606 2°56.065 2.8 263 13.3 102230 81
2007-04-16 08:23:08 51°13.608 2°56.058 3.1 56 13.3 102230 81
2007-04-16 08:23:13 51°13.609 2°56.051 3.5 21 13.3 102230 81
2007-04-16 08:23:18 51°13.611 2°56.044 3.2 57 13.3 102230 81
2007-04-16 08:23:23 51°13.612 2°56.036 3.1 25 13.3 102230 81
2007-04-16 08:23:28 51°13.614 2°56.028 1.6 306 13.3 102230 81
2007-04-16 08:23:33 51°13.615 2°56.02 1.5 26 13.4 102230 81
2007-04-16 08:23:38 51°13.617 2°56.012 2.1 51 13.4 102230 81
2007-04-16 08:23:43 51°13.619 2°56.004 3.4 24 13.4 102230 82
2007-04-16 08:23:48 51°13.621 2°55.995 3.2 61 13.4 102230 82
2007-04-16 08:23:53 51°13.623 2°55.987 4.6 27 13.4 102230 82
2007-04-16 08:23:58 51°13.625 2°55.98 4.5 57 13.4 102230 82
2007-04-16 08:24:03 51°13.627 2°55.971 2.9 25 13.4 102230 82
2007-04-16 08:24:08 51°13.629 2°55.963 5.5 56 13.4 102230 82
2007-04-16 08:24:13 51°13.632 2°55.955 7.5 26 13.4 102230 81
2007-04-16 08:24:18 51°13.634 2°55.947 6.7 56 13.4 102230 81
2007-04-16 08:24:23 51°13.637 2°55.939 6.7 26 13.4 102230 81
2007-04-16 08:24:28 51°13.64 2°55.931 6.3 52 13.4 102230 81
2007-04-16 08:24:33 51°13.643 2°55.923 5.3 22 13.3 102230 81
2007-04-16 08:24:38 51°13.647 2°55.915 4.1 56 13.3 102230 81
2007-04-16 08:24:43 51°13.65 2°55.907 5.6 19 13.3 102240 81
2007-04-16 08:24:48 51°13.654 2°55.899 4.6 51 13.3 102240 81
2007-04-16 08:24:53 51°13.657 2°55.891 6.3 19 13.3 102230 81
2007-04-16 08:24:58 51°13.661 2°55.883 6.7 52 13.3 102230 81
2007-04-16 08:25:03 51°13.664 2°55.876 5.8 21 13.2 102230 81
2007-04-16 08:25:08 51°13.668 2°55.868 6.9 56 13.2 102230 81
2007-04-16 08:25:13 51°13.671 2°55.86 5.3 26 13.2 102230 81
2007-04-16 08:25:18 51°13.674 2°55.852 6.1 51 13.2 102230 81
2007-04-16 08:25:23 51°13.678 2°55.845 5 27 13.2 102240 81
2007-04-16 08:25:28 51°13.681 2°55.838 3.5 58 13.2 102240 81
2007-04-16 08:25:33 51°13.684 2°55.831 4 24 13.1 102240 81
2007-04-16 08:25:38 51°13.687 2°55.824 6.5 59 13.1 102240 81
2007-04-16 08:25:43 51°13.69 2°55.817 6.5 24 13.1 102240 81
2007-04-16 08:25:48 51°13.692 2°55.81 6.3 51 13.1 102240 81
2007-04-16 08:25:53 51°13.695 2°55.803 5.8 27 13.1 102230 81
2007-04-16 08:25:58 51°13.697 2°55.797 7 56 13.1 102230 81
2007-04-16 08:26:03 51°13.699 2°55.79 5.2 24 13 102240 81
2007-04-16 08:26:08 51°13.702 2°55.784 7.9 60 13 102240 81
2007-04-16 08:26:13 51°13.704 2°55.778 6 26 13 102250 81
2007-04-16 08:26:18 51°13.706 2°55.771 6 310 13 102250 81
2007-04-16 08:26:23 51°13.707 2°55.766 4.9 26 13 102250 82
2007-04-16 08:26:28 51°13.709 2°55.76 4.2 52 13 102250 82
2007-04-16 08:26:33 51°13.71 2°55.754 5.7 28 12.9 102240 82
2007-04-16 08:26:38 51°13.712 2°55.749 5.7 58 12.9 102240 82
2007-04-16 08:26:43 51°13.713 2°55.745 5 22 12.9 102230 82
2007-04-16 08:26:48 51°13.714 2°55.74 3.8 308 12.9 102230 82
2007-04-16 08:26:53 51°13.715 2°55.736 4 270 12.9 102240 82
2007-04-16 08:26:58 51°13.716 2°55.733 5.5 59 12.9 102240 82
2007-04-16 08:27:03 51°13.716 2°55.731 3 264 12.9 102240 83
2007-04-16 08:27:08 51°13.717 2°55.73 4.1 311 12.9 102240 83
2007-04-16 08:27:13 51°13.717 2°55.731 3.4 260 12.9 102250 83
2007-04-16 08:27:18 51°13.717 2°55.733 4.5 303 12.9 102250 83
2007-04-16 08:27:23 51°13.717 2°55.736 4.7 257 12.9 102240 83
2007-04-16 08:27:28 51°13.717 2°55.739 4.7 302 12.9 102240 83
2007-04-16 08:27:33 51°13.718 2°55.742 6.8 256 12.8 102230 83
2007-04-16 08:27:38 51°13.718 2°55.744 5.7 303 12.8 102230 83
2007-04-16 08:27:43 51°13.718 2°55.746 5.2 252 12.9 102240 84
2007-04-16 08:27:48 51°13.718 2°55.746 3.3 303 12.9 102240 84
2007-04-16 08:27:53 51°13.717 2°55.745 4.5 252 12.9 102230 84
2007-04-16 08:27:58 51°13.717 2°55.743 4.8 309 12.9 102230 84
2007-04-16 08:28:03 51°13.716 2°55.741 4.2 255 12.9 102240 84
2007-04-16 08:28:08 51°13.715 2°55.738 4.8 304 12.9 102240 84
2007-04-16 08:28:13 51°13.714 2°55.735 3.8 249 12.9 102230 84
2007-04-16 08:28:18 51°13.713 2°55.733 5.5 304 12.9 102230 84
2007-04-16 08:28:23 51°13.712 2°55.73 5.8 256 12.9 102230 84
2007-04-16 08:28:28 51°13.712 2°55.729 5.3 303 12.9 102230 84
2007-04-16 08:28:33 51°13.712 2°55.729 4.7 20 12.9 102230 84
2007-04-16 08:28:38 51°13.712 2°55.729 5.6 307 12.9 102230 84
2007-04-16 08:28:43 51°13.712 2°55.729 5.3 21 12.8 102240 84
2007-04-16 08:28:48 51°13.712 2°55.73 4.9 301 12.8 102240 84
2007-04-16 08:28:53 51°13.712 2°55.731 4.6 20 12.9 102230 84
2007-04-16 08:28:58 51°13.713 2°55.732 5.4 304 12.9 102230 84
2007-04-16 08:29:03 51°13.714 2°55.734 5.2 24 12.9 102230 84
2007-04-16 08:29:08 51°13.715 2°55.735 4.5 303 12.9 102230 84
2007-04-16 08:29:13 51°13.715 2°55.736 3.7 25 12.9 102230 84
2007-04-16 08:29:18 51°13.715 2°55.736 3.8 309 12.9 102230 84
2007-04-16 08:29:23 51°13.714 2°55.736 4 28 12.9 102240 84
2007-04-16 08:29:28 51°13.713 2°55.735 4.1 304 12.9 102240 84
2007-04-16 08:29:33 51°13.712 2°55.734 5 22 12.9 102240 84
2007-04-16 08:29:38 51°13.71 2°55.733 5 309 12.9 102240 84
2007-04-16 08:29:43 51°13.709 2°55.732 4.5 23 12.9 102240 84
2007-04-16 08:29:48 51°13.707 2°55.731 3.8 303 12.9 102240 84
2007-04-16 08:29:53 51°13.706 2°55.73 3.7 24 12.9 102240 84
2007-04-16 08:29:58 51°13.705 2°55.73 3.1 309 12.9 102240 84
2007-04-16 08:30:03 51°13.705 2°55.73 3.3 22 12.9 102240 84
2007-04-16 08:30:08 51°13.704 2°55.73 3.8 309 12.9 102240 84
2007-04-16 08:30:13 51°13.704 2°55.73 4.7 24 12.9 102240 84
2007-04-16 08:30:18 51°13.705 2°55.73 5 304 12.9 102240 84
2007-04-16 08:30:23 51°13.705 2°55.731 5 26 12.9 102240 84
2007-04-16 08:30:28 51°13.706 2°55.731 3.8 324 12.9 102240 84
2007-04-16 08:30:33 51°13.706 2°55.732 3.7 316 12.9 102240 85
2007-04-16 08:30:38 51°13.707 2°55.732 4.8 302 12.9 102240 85
2007-04-16 08:30:43 51°13.708 2°55.733 3.9 21 12.9 102240 85
2007-04-16 08:30:48 51°13.709 2°55.733 4.9 309 12.9 102240 85
2007-04-16 08:30:53 51°13.711 2°55.733 5.7 326 12.9 102240 85
2007-04-16 08:30:58 51°13.712 2°55.732 5.6 329 12.9 102240 85
2007-04-16 08:31:03 51°13.714 2°55.732 5.2 330 12.9 102240 85
2007-04-16 08:31:08 51°13.716 2°55.731 5.8 333 12.9 102240 85
2007-04-16 08:31:13 51°13.718 2°55.73 5.8 332 12.9 102240 85
2007-04-16 08:31:18 51°13.72 2°55.729 5.7 336 12.9 102240 85
2007-04-16 08:31:23 51°13.722 2°55.727 5.6 340 12.9 102240 84
2007-04-16 08:31:28 51°13.724 2°55.726 5.4 334 12.9 102240 84
2007-04-16 08:31:33 51°13.726 2°55.723 6.2 337 12.9 102240 84
2007-04-16 08:31:38 51°13.729 2°55.721 5.4 343 12.9 102240 84
2007-04-16 08:31:43 51°13.732 2°55.718 5.1 341 12.8 102240 84
2007-04-16 08:31:48 51°13.734 2°55.715 4.3 342 12.8 102240 84
2007-04-16 08:31:53 51°13.737 2°55.711 5.2 334 12.8 102240 84
2007-04-16 08:31:58 51°13.741 2°55.707 5.4 342 12.8 102240 84
2007-04-16 08:32:03 51°13.746 2°55.703 6.2 332 12.8 102240 84
2007-04-16 08:32:08 51°13.751 2°55.698 5.8 344 12.8 102240 84
2007-04-16 08:32:13 51°13.756 2°55.693 5.9 332 12.8 102240 84
2007-04-16 08:32:18 51°13.761 2°55.688 6.6 341 12.8 102240 84
2007-04-16 08:32:23 51°13.767 2°55.683 6.7 342 12.7 102240 85
2007-04-16 08:32:28 51°13.773 2°55.678 6.4 341 12.7 102240 85
2007-04-16 08:32:33 51°13.778 2°55.673 6 341 12.7 102240 85
2007-04-16 08:32:38 51°13.784 2°55.668 5.6 341 12.7 102240 85
2007-04-16 08:32:43 51°13.79 2°55.663 6.2 343 12.7 102230 85
2007-04-16 08:32:48 51°13.796 2°55.658 7 341 12.7 102230 85
2007-04-16 08:32:53 51°13.801 2°55.653 7.3 344 12.7 102240 85
2007-04-16 08:32:58 51°13.807 2°55.648 6.4 344 12.7 102240 85
2007-04-16 08:33:03 51°13.813 2°55.643 6.5 335 12.7 102230 85
2007-04-16 08:33:08 51°13.819 2°55.638 6 335 12.7 102230 85
2007-04-16 08:33:13 51°13.825 2°55.633 6.3 336 12.6 102230 85
2007-04-16 08:33:18 51°13.831 2°55.628 7.1 278 12.6 102230 85
2007-04-16 08:33:23 51°13.837 2°55.622 7.3 339 12.6 102230 86
2007-04-16 08:33:28 51°13.842 2°55.617 7.6 339 12.6 102230 86
2007-04-16 08:33:33 51°13.848 2°55.612 7.8 337 12.7 102240 86
2007-04-16 08:33:38 51°13.854 2°55.607 7.2 337 12.7 102240 86
2007-04-16 08:33:43 51°13.861 2°55.602 6.6 336 12.6 102230 86
2007-04-16 08:33:48 51°13.867 2°55.597 6.8 334 12.6 102230 86
2007-04-16 08:33:53 51°13.872 2°55.591 7.2 336 12.7 102230 86
2007-04-16 08:33:58 51°13.878 2°55.586 6.6 336 12.7 102230 86
2007-04-16 08:34:03 51°13.884 2°55.581 6.8 338 12.6 102230 86
2007-04-16 08:34:08 51°13.89 2°55.576 6.7 336 12.6 102230 86
2007-04-16 08:34:13 51°13.896 2°55.571 7 338 12.6 102240 86
2007-04-16 08:34:18 51°13.902 2°55.566 6.9 277 12.6 102240 86
2007-04-16 08:34:23 51°13.907 2°55.561 6.9 339 12.6 102240 87
2007-04-16 08:34:28 51°13.913 2°55.556 6.8 340 12.6 102240 87
2007-04-16 08:34:33 51°13.918 2°55.552 6.2 335 12.6 102240 87
2007-04-16 08:34:38 51°13.924 2°55.548 6.2 336 12.6 102240 87
2007-04-16 08:34:43 51°13.93 2°55.545 5.7 336 12.6 102230 87
2007-04-16 08:34:48 51°13.935 2°55.541 5.8 336 12.6 102230 87
2007-04-16 08:34:53 51°13.94 2°55.536 6.1 338 12.6 102240 87
2007-04-16 08:34:58 51°13.944 2°55.532 5.5 338 12.6 102240 87
2007-04-16 08:35:03 51°13.948 2°55.527 5.5 339 12.6 102240 87
2007-04-16 08:35:08 51°13.953 2°55.522 5.7 338 12.6 102240 87
2007-04-16 08:35:13 51°13.957 2°55.517 6.4 338 12.6 102240 87
2007-04-16 08:35:18 51°13.961 2°55.513 5.7 282 12.6 102240 87
2007-04-16 08:35:23 51°13.965 2°55.508 5.9 338 12.6 102240 87
2007-04-16 08:35:28 51°13.969 2°55.503 5.3 341 12.6 102240 87
2007-04-16 08:35:33 51°13.972 2°55.498 6.8 341 12.6 102240 87
2007-04-16 08:35:38 51°13.976 2°55.492 5.8 344 12.6 102240 87
2007-04-16 08:35:43 51°13.979 2°55.487 6.2 345 12.6 102240 87
2007-04-16 08:35:48 51°13.982 2°55.482 6 338 12.6 102240 87
2007-04-16 08:35:53 51°13.986 2°55.478 6.9 344 12.6 102240 87
2007-04-16 08:35:58 51°13.989 2°55.474 6.2 341 12.6 102240 87
2007-04-16 08:36:03 51°13.992 2°55.47 6.2 341 12.5 102240 87
2007-04-16 08:36:08 51°13.994 2°55.467 6.3 343 12.5 102240 87
2007-04-16 08:36:13 51°13.996 2°55.463 6.3 341 12.5 102240 87
2007-04-16 08:36:18 51°13.999 2°55.461 5.8 283 12.5 102240 87
2007-04-16 08:36:23 51°14 2°55.459 6.2 340 12.5 102240 87
2007-04-16 08:36:28 51°14.002 2°55.457 5.6 339 12.5 102240 87
2007-04-16 08:36:33 51°14.002 2°55.456 5.2 338 12.5 102240 87
2007-04-16 08:36:38 51°14.003 2°55.455 5.2 338 12.5 102240 87
2007-04-16 08:36:43 51°14.003 2°55.454 4.7 333 12.5 102240 87
2007-04-16 08:36:48 51°14.003 2°55.453 3.9 331 12.5 102240 87
2007-04-16 08:36:53 51°14.003 2°55.452 4.3 330 12.4 102240 88
2007-04-16 08:36:58 51°14.003 2°55.452 3.8 333 12.4 102240 88
2007-04-16 08:37:03 51°14.003 2°55.452 4.3 332 12.4 102240 88
2007-04-16 08:37:08 51°14.003 2°55.452 5.1 328 12.4 102240 88
2007-04-16 08:37:13 51°14.003 2°55.452 4.5 334 12.4 102250 88
2007-04-16 08:37:18 51°14.003 2°55.453 4.6 279 12.4 102250 88
2007-04-16 08:37:23 51°14.004 2°55.454 4.8 330 12.4 102250 88
2007-04-16 08:37:28 51°14.005 2°55.455 4 337 12.4 102250 88
2007-04-16 08:37:33 51°14.005 2°55.456 4.2 334 12.4 102250 88
2007-04-16 08:37:38 51°14.005 2°55.456 4.6 336 12.4 102250 88
2007-04-16 08:37:43 51°14.005 2°55.455 4.2 332 12.4 102250 88
2007-04-16 08:37:48 51°14.005 2°55.455 4.7 332 12.4 102250 88
2007-04-16 08:37:53 51°14.005 2°55.455 4.9 330 12.4 102250 88
2007-04-16 08:37:58 51°14.005 2°55.454 4.4 331 12.4 102250 88
2007-04-16 08:38:03 51°14.005 2°55.454 4.1 338 12.4 102240 88
2007-04-16 08:38:08 51°14.005 2°55.453 4.2 335 12.4 102240 88
2007-04-16 08:38:13 51°14.005 2°55.453 4.4 337 12.4 102250 88
2007-04-16 08:38:18 51°14.005 2°55.453 3.8 335 12.4 102250 88
2007-04-16 08:38:23 51°14.005 2°55.453 3.8 337 12.3 102250 88
2007-04-16 08:38:28 51°14.004 2°55.453 3.4 335 12.3 102250 88
2007-04-16 08:38:33 51°14.004 2°55.453 3.5 335 12.3 102240 89
2007-04-16 08:38:38 51°14.004 2°55.453 4.7 343 12.3 102240 89
2007-04-16 08:38:43 51°14.004 2°55.453 4.4 337 12.3 102240 89
2007-04-16 08:38:48 51°14.004 2°55.453 4.3 332 12.3 102240 89
2007-04-16 08:38:53 51°14.004 2°55.452 4.1 335 12.3 102240 89
2007-04-16 08:38:58 51°14.004 2°55.452 4.1 334 12.3 102240 89
2007-04-16 08:39:03 51°14.004 2°55.452 4 333 12.4 102240 89
2007-04-16 08:39:08 51°14.004 2°55.452 3.9 329 12.4 102240 89
2007-04-16 08:39:13 51°14.004 2°55.451 4 332 12.4 102240 89
2007-04-16 08:39:18 51°14.003 2°55.451 4.1 282 12.4 102240 89
2007-04-16 08:39:23 51°14.003 2°55.451 4.4 333 12.3 102240 89
2007-04-16 08:39:28 51°14.003 2°55.451 4.6 339 12.3 102240 89
2007-04-16 08:39:33 51°14.003 2°55.451 5 337 12.3 102240 89
2007-04-16 08:39:38 51°14.003 2°55.451 4.5 329 12.3 102240 89
2007-04-16 08:39:43 51°14.004 2°55.452 4.1 330 12.3 102240 89
2007-04-16 08:39:48 51°14.004 2°55.452 4.4 332 12.3 102240 89
2007-04-16 08:39:53 51°14.005 2°55.453 4.6 335 12.3 102240 89
2007-04-16 08:39:58 51°14.005 2°55.454 4.2 334 12.3 102240 89
2007-04-16 08:40:03 51°14.005 2°55.453 5 328 12.3 102240 89
2007-04-16 08:40:08 51°14.005 2°55.452 4.7 331 12.3 102240 89
2007-04-16 08:40:13 51°14.004 2°55.452 4.4 331 12.3 102240 89
2007-04-16 08:40:18 51°14.004 2°55.451 4.8 336 12.3 102240 89
2007-04-16 08:40:23 51°14.004 2°55.451 4.3 333 12.3 102250 89
2007-04-16 08:40:28 51°14.003 2°55.45 5.3 329 12.3 102250 89
2007-04-16 08:40:33 51°14.003 2°55.45 4.4 333 12.3 102250 89
2007-04-16 08:40:38 51°14.003 2°55.45 4.1 330 12.3 102250 89
2007-04-16 08:40:43 51°14.003 2°55.45 4.7 329 12.3 102240 89
2007-04-16 08:40:48 51°14.003 2°55.45 4.3 339 12.3 102240 89
2007-04-16 08:40:53 51°14.003 2°55.45 4.2 337 12.3 102250 89
2007-04-16 08:40:58 51°14.004 2°55.451 4.9 337 12.3 102250 89
2007-04-16 08:41:03 51°14.005 2°55.452 4.8 338 12.3 102240 89
2007-04-16 08:41:08 51°14.005 2°55.452 4.3 339 12.3 102240 89
2007-04-16 08:41:13 51°14.005 2°55.452 3.6 341 12.3 102250 89
2007-04-16 08:41:18 51°14.005 2°55.452 3.3 279 12.3 102250 89
2007-04-16 08:41:23 51°14.005 2°55.452 3.4 330 12.3 102250 89
2007-04-16 08:41:28 51°14.004 2°55.452 3.6 338 12.3 102250 89
2007-04-16 08:41:33 51°14.004 2°55.452 3.7 329 12.3 102250 89
2007-04-16 08:41:38 51°14.004 2°55.452 3.7 334 12.3 102250 89
2007-04-16 08:41:43 51°14.004 2°55.452 3.2 338 12.3 102250 89
2007-04-16 08:41:48 51°14.004 2°55.452 3.2 338 12.3 102250 89
2007-04-16 08:41:53 51°14.005 2°55.452 3.4 333 12.3 102240 90
2007-04-16 08:41:58 51°14.005 2°55.452 3.1 330 12.3 102240 90
2007-04-16 08:42:03 51°14.005 2°55.453 3.4 340 12.3 102240 90
2007-04-16 08:42:08 51°14.005 2°55.453 3.1 302 12.3 102240 90
2007-04-16 08:42:13 51°14.004 2°55.452 3.3 334 12.3 102250 90
2007-04-16 08:42:18 51°14.004 2°55.452 4 333 12.3 102250 90
2007-04-16 08:42:23 51°14.004 2°55.452 4 333 12.3 102240 90
2007-04-16 08:42:28 51°14.004 2°55.452 4 334 12.3 102240 90
2007-04-16 08:42:33 51°14.004 2°55.452 4.1 331 12.3 102240 90
2007-04-16 08:42:38 51°14.004 2°55.452 4.1 334 12.3 102240 90
2007-04-16 08:42:43 51°14.004 2°55.452 3.9 335 12.3 102240 90
2007-04-16 08:42:48 51°14.004 2°55.452 3.8 330 12.3 102240 90
2007-04-16 08:42:53 51°14.004 2°55.452 4 335 12.3 102240 90
2007-04-16 08:42:58 51°14.003 2°55.451 4.1 328 12.3 102240 90
2007-04-16 08:43:03 51°14.003 2°55.45 5.3 336 12.3 102240 90
2007-04-16 08:43:08 51°14.003 2°55.451 4.3 333 12.3 102240 90
2007-04-16 08:43:13 51°14.004 2°55.451 4.5 330 12.3 102240 90
2007-04-16 08:43:18 51°14.004 2°55.452 4.4 285 12.3 102240 90
2007-04-16 08:43:23 51°14.004 2°55.451 4.8 333 12.3 102240 90
2007-04-16 08:43:28 51°14.003 2°55.45 4.3 329 12.3 102240 90
2007-04-16 08:43:33 51°14.002 2°55.449 4.1 334 12.3 102240 90
2007-04-16 08:43:38 51°14.002 2°55.449 4.5 329 12.3 102240 90
2007-04-16 08:43:43 51°14.002 2°55.449 4.7 330 12.3 102250 90
2007-04-16 08:43:48 51°14.002 2°55.448 4.2 330 12.3 102250 90
2007-04-16 08:43:53 51°14.002 2°55.449 4.3 331 12.3 102250 90
2007-04-16 08:43:58 51°14.003 2°55.45 4.4 303 12.3 102250 90
2007-04-16 08:44:03 51°14.004 2°55.451 4.9 327 12.3 102250 90
2007-04-16 08:44:08 51°14.004 2°55.451 4.8 331 12.3 102250 90
2007-04-16 08:44:13 51°14.004 2°55.451 4.5 325 12.3 102250 90
2007-04-16 08:44:18 51°14.004 2°55.451 4.6 279 12.3 102250 90
2007-04-16 08:44:23 51°14.004 2°55.451 4.4 334 12.3 102250 90
2007-04-16 08:44:28 51°14.004 2°55.451 4.6 333 12.3 102250 90
2007-04-16 08:44:33 51°14.004 2°55.451 4.3 333 12.3 102250 90
2007-04-16 08:44:38 51°14.004 2°55.451 4 331 12.3 102250 90
2007-04-16 08:44:43 51°14.004 2°55.451 3.9 334 12.3 102250 90
2007-04-16 08:44:48 51°14.004 2°55.45 4.2 327 12.3 102250 90
2007-04-16 08:44:53 51°14.003 2°55.45 3.7 333 12.3 102250 90
2007-04-16 08:44:58 51°14.003 2°55.449 3.9 330 12.3 102250 90
2007-04-16 08:45:03 51°14.003 2°55.449 4.2 329 12.3 102250 90
2007-04-16 08:45:08 51°14.003 2°55.449 4.7 331 12.3 102250 90
2007-04-16 08:45:13 51°14.003 2°55.449 4.5 331 12.3 102250 90
2007-04-16 08:45:18 51°14.003 2°55.449 4.4 279 12.3 102250 90
2007-04-16 08:45:23 51°14.002 2°55.448 4.5 327 12.3 102250 90
2007-04-16 08:45:28 51°14.002 2°55.448 3.7 334 12.3 102250 90
2007-04-16 08:45:33 51°14.002 2°55.448 4 327 12.3 102250 90
2007-04-16 08:45:38 51°14.002 2°55.448 4.4 333 12.3 102250 90
2007-04-16 08:45:43 51°14.003 2°55.449 4.3 332 12.3 102250 90
2007-04-16 08:45:48 51°14.003 2°55.449 4 301 12.3 102250 90
2007-04-16 08:45:53 51°14.002 2°55.449 2.6 332 12.3 102250 90
2007-04-16 08:45:58 51°14.003 2°55.449 4.4 330 12.3 102250 90
2007-04-16 08:46:03 51°14.003 2°55.449 4.2 330 12.2 102250 90
2007-04-16 08:46:08 51°14.003 2°55.449 4.2 329 12.2 102250 90
2007-04-16 08:46:13 51°14.003 2°55.45 3.8 332 12.2 102250 90
2007-04-16 08:46:18 51°14.003 2°55.45 3.9 279 12.2 102250 90
2007-04-16 08:46:23 51°14.003 2°55.45 3.6 326 12.2 102250 90
2007-04-16 08:46:28 51°14.004 2°55.451 4 331 12.2 102250 90
2007-04-16 08:46:33 51°14.004 2°55.452 3.8 325 12.2 102250 90
2007-04-16 08:46:38 51°14.004 2°55.452 3.8 329 12.2 102250 90
2007-04-16 08:46:43 51°14.005 2°55.453 3.7 328 12.2 102250 90
2007-04-16 08:46:48 51°14.005 2°55.452 3.7 331 12.2 102250 90
2007-04-16 08:46:53 51°14.004 2°55.452 3.7 333 12.2 102250 90
2007-04-16 08:46:58 51°14.004 2°55.451 3.6 303 12.2 102250 90
2007-04-16 08:47:03 51°14.003 2°55.451 3.6 335 12.3 102250 90
2007-04-16 08:47:08 51°14.003 2°55.45 3.4 331 12.3 102250 90
2007-04-16 08:47:13 51°14.003 2°55.45 3.6 322 12.3 102240 90
2007-04-16 08:47:18 51°14.003 2°55.451 4.7 279 12.3 102240 90
2007-04-16 08:47:23 51°14.004 2°55.452 4.7 333 12.3 102240 90
2007-04-16 08:47:28 51°14.004 2°55.452 4.7 334 12.3 102240 90
2007-04-16 08:47:33 51°14.004 2°55.452 4.4 330 12.3 102240 90
2007-04-16 08:47:38 51°14.004 2°55.452 4.5 330 12.3 102240 90
2007-04-16 08:47:43 51°14.004 2°55.452 4.6 335 12.3 102240 90
2007-04-16 08:47:48 51°14.004 2°55.452 4.3 332 12.3 102240 90
2007-04-16 08:47:53 51°14.004 2°55.452 4.6 329 12.3 102240 90
2007-04-16 08:47:58 51°14.004 2°55.452 4.8 333 12.3 102240 90
2007-04-16 08:48:03 51°14.004 2°55.452 4.1 333 12.3 102240 90
2007-04-16 08:48:08 51°14.004 2°55.451 4.3 302 12.3 102240 90
2007-04-16 08:48:13 51°14.004 2°55.451 4.3 328 12.3 102250 90
2007-04-16 08:48:18 51°14.004 2°55.451 4.7 280 12.3 102250 90
2007-04-16 08:48:23 51°14.003 2°55.451 4.5 330 12.3 102250 90
2007-04-16 08:48:28 51°14.003 2°55.45 4.1 326 12.3 102250 90
2007-04-16 08:48:33 51°14.003 2°55.45 4.6 333 12.3 102240 90
2007-04-16 08:48:38 51°14.003 2°55.451 4.8 325 12.3 102240 90
2007-04-16 08:48:43 51°14.003 2°55.451 5 327 12.3 102250 90
2007-04-16 08:48:48 51°14.003 2°55.451 4.9 330 12.3 102250 90
2007-04-16 08:48:53 51°14.003 2°55.451 5.3 329 12.2 102250 90
2007-04-16 08:48:58 51°14.003 2°55.451 4.4 330 12.2 102250 90
2007-04-16 08:49:03 51°14.003 2°55.451 3.9 325 12.2 102250 90
2007-04-16 08:49:08 51°14.003 2°55.45 4.1 329 12.2 102250 90
2007-04-16 08:49:13 51°14.003 2°55.45 4.8 327 12.2 102250 90
2007-04-16 08:49:18 51°14.003 2°55.45 4.6 284 12.2 102250 90
2007-04-16 08:49:23 51°14.003 2°55.45 4.8 329 12.2 102250 90
2007-04-16 08:49:28 51°14.003 2°55.45 3.8 328 12.2 102250 90
2007-04-16 08:49:33 51°14.003 2°55.45 4.8 323 12.2 102250 90
2007-04-16 08:49:38 51°14.003 2°55.45 4.1 328 12.2 102250 90
2007-04-16 08:49:43 51°14.003 2°55.45 3.9 326 12.2 102250 90
2007-04-16 08:49:48 51°14.003 2°55.45 4.4 302 12.2 102250 90
2007-04-16 08:49:53 51°14.003 2°55.45 4.4 328 12.2 102250 90
2007-04-16 08:49:58 51°14.003 2°55.45 4.2 332 12.2 102250 90
2007-04-16 08:50:03 51°14.003 2°55.45 4 328 12.3 102250 90
2007-04-16 08:50:08 51°14.003 2°55.45 4.4 327 12.3 102250 90
2007-04-16 08:50:13 51°14.003 2°55.451 4.2 326 12.2 102250 90
2007-04-16 08:50:18 51°14.003 2°55.451 4.9 282 12.2 102250 90
2007-04-16 08:50:23 51°14.003 2°55.451 4.5 329 12.2 102250 90
2007-04-16 08:50:28 51°14.003 2°55.451 4.6 326 12.2 102250 90
2007-04-16 08:50:33 51°14.003 2°55.451 4.4 323 12.2 102250 90
2007-04-16 08:50:38 51°14.003 2°55.451 4.3 331 12.2 102250 90
2007-04-16 08:50:43 51°14.003 2°55.451 4.6 332 12.2 102250 90
2007-04-16 08:50:48 51°14.003 2°55.451 3.9 334 12.2 102250 90
2007-04-16 08:50:53 51°14.003 2°55.451 4.3 327 12.2 102250 90
2007-04-16 08:50:58 51°14.003 2°55.451 3.4 336 12.2 102250 90
2007-04-16 08:51:03 51°14.003 2°55.451 3.8 329 12.2 102250 90
2007-04-16 08:51:08 51°14.003 2°55.451 3.4 330 12.2 102250 90
2007-04-16 08:51:13 51°14.003 2°55.451 3.6 328 12.2 102250 90
2007-04-16 08:51:18 51°14.002 2°55.451 4 285 12.2 102250 90
2007-04-16 08:51:23 51°14.003 2°55.451 4.2 327 12.2 102250 90
2007-04-16 08:51:28 51°14.003 2°55.45 3.6 330 12.2 102250 90
2007-04-16 08:51:33 51°14.003 2°55.451 3.7 333 12.2 102240 90
2007-04-16 08:51:38 51°14.003 2°55.451 3.6 333 12.2 102240 90
2007-04-16 08:51:43 51°14.003 2°55.451 4.5 331 12.2 102250 90
2007-04-16 08:51:48 51°14.003 2°55.451 4 302 12.2 102250 90
2007-04-16 08:51:53 51°14.003 2°55.451 3.4 335 12.2 102250 90
2007-04-16 08:51:58 51°14.003 2°55.451 3.8 329 12.2 102250 90
2007-04-16 08:52:03 51°14.003 2°55.451 4.3 324 12.2 102250 90
2007-04-16 08:52:08 51°14.003 2°55.451 3.9 335 12.2 102250 90
2007-04-16 08:52:13 51°14.003 2°55.451 4.3 328 12.3 102250 90
2007-04-16 08:52:18 51°14.003 2°55.451 4.3 331 12.3 102250 90
2007-04-16 08:52:23 51°14.003 2°55.451 5 334 12.3 102250 90
2007-04-16 08:52:28 51°14.003 2°55.451 4.8 331 12.3 102250 90
2007-04-16 08:52:33 51°14.003 2°55.451 3.6 327 12.3 102250 90
2007-04-16 08:52:38 51°14.003 2°55.451 3.9 333 12.3 102250 90
2007-04-16 08:52:43 51°14.003 2°55.451 3.7 332 12.3 102250 90
2007-04-16 08:52:48 51°14.003 2°55.451 3.9 301 12.3 102250 90
2007-04-16 08:52:53 51°14.003 2°55.451 3.4 328 12.3 102250 90
2007-04-16 08:52:58 51°14.003 2°55.451 3.4 302 12.3 102250 90
2007-04-16 08:53:03 51°14.003 2°55.451 4.2 325 12.3 102250 90
2007-04-16 08:53:08 51°14.003 2°55.451 3.9 328 12.3 102250 90
2007-04-16 08:53:13 51°14.003 2°55.451 5.3 329 12.3 102250 90
2007-04-16 08:53:18 51°14.003 2°55.451 4.5 280 12.3 102250 90
2007-04-16 08:53:23 51°14.003 2°55.451 4.5 329 12.3 102250 90
2007-04-16 08:53:28 51°14.003 2°55.451 4.3 328 12.3 102250 90
2007-04-16 08:53:33 51°14.003 2°55.451 4.5 335 12.3 102250 90
2007-04-16 08:53:38 51°14.003 2°55.451 4.1 330 12.3 102250 90
2007-04-16 08:53:43 51°14.003 2°55.451 4.5 333 12.3 102250 90
2007-04-16 08:53:48 51°14.003 2°55.451 4.7 301 12.3 102250 90
2007-04-16 08:53:53 51°14.003 2°55.451 4.7 335 12.3 102250 90
2007-04-16 08:53:58 51°14.003 2°55.451 4.4 329 12.3 102250 90
2007-04-16 08:54:03 51°14.003 2°55.451 3.7 328 12.3 102250 90
2007-04-16 08:54:08 51°14.004 2°55.451 3.9 326 12.3 102250 90
2007-04-16 08:54:13 51°14.003 2°55.451 5.1 327 12.3 102250 90
2007-04-16 08:54:18 51°14.004 2°55.451 4.9 279 12.3 102250 90
2007-04-16 08:54:23 51°14.004 2°55.451 4.3 334 12.3 102250 90
2007-04-16 08:54:28 51°14.004 2°55.451 4 332 12.3 102250 90
2007-04-16 08:54:33 51°14.004 2°55.451 3.7 329 12.3 102250 90
2007-04-16 08:54:38 51°14.004 2°55.451 3.9 337 12.3 102250 90
2007-04-16 08:54:43 51°14.003 2°55.451 3.6 338 12.3 102250 90
2007-04-16 08:54:48 51°14.003 2°55.451 3.8 331 12.3 102250 90
2007-04-16 08:54:53 51°14.003 2°55.451 3.7 331 12.3 102240 90
2007-04-16 08:54:58 51°14.003 2°55.451 3.6 329 12.3 102240 90
2007-04-16 08:55:03 51°14.003 2°55.451 3.5 341 12.3 102240 90
2007-04-16 08:55:08 51°14.003 2°55.451 4.1 338 12.3 102240 90
2007-04-16 08:55:13 51°14.004 2°55.451 4.3 342 12.3 102240 90
2007-04-16 08:55:18 51°14.004 2°55.451 4.1 278 12.3 102240 90
2007-04-16 08:55:23 51°14.004 2°55.451 4 342 12.3 102240 90
2007-04-16 08:55:28 51°14.004 2°55.451 4.1 334 12.3 102240 90
2007-04-16 08:55:33 51°14.004 2°55.451 3.7 338 12.3 102240 90
2007-04-16 08:55:38 51°14.004 2°55.451 4.2 335 12.3 102240 90
2007-04-16 08:55:43 51°14.004 2°55.451 4.1 337 12.3 102240 90
2007-04-16 08:55:48 51°14.004 2°55.451 4.3 333 12.3 102240 90
2007-04-16 08:55:53 51°14.004 2°55.451 3.9 335 12.3 102240 90
2007-04-16 08:55:58 51°14.004 2°55.451 4.2 336 12.3 102240 90
2007-04-16 08:56:03 51°14.004 2°55.451 3.5 337 12.3 102240 90
2007-04-16 08:56:08 51°14.004 2°55.451 4.1 333 12.3 102240 90
2007-04-16 08:56:13 51°14.004 2°55.451 4 337 12.3 102240 90
2007-04-16 08:56:18 51°14.004 2°55.451 4.9 335 12.3 102240 90
2007-04-16 08:56:23 51°14.004 2°55.451 4.5 335 12.3 102240 90
2007-04-16 08:56:28 51°14.004 2°55.451 4 334 12.3 102240 90
2007-04-16 08:56:33 51°14.004 2°55.451 4.4 334 12.3 102240 90
2007-04-16 08:56:38 51°14.004 2°55.451 4.9 338 12.3 102240 90
2007-04-16 08:56:43 51°14.004 2°55.451 3.4 334 12.3 102240 90
2007-04-16 08:56:48 51°14.004 2°55.451 3.5 336 12.3 102240 90
2007-04-16 08:56:53 51°14.004 2°55.451 3.2 336 12.3 102240 90
2007-04-16 08:56:58 51°14.004 2°55.451 3.4 333 12.3 102240 90
2007-04-16 08:57:03 51°14.004 2°55.451 3.7 337 12.3 102240 89
2007-04-16 08:57:08 51°14.004 2°55.451 4.4 332 12.3 102240 89
2007-04-16 08:57:13 51°14.004 2°55.451 4.2 331 12.3 102240 89
2007-04-16 08:57:18 51°14.004 2°55.451 4.5 325 12.3 102240 89
2007-04-16 08:57:23 51°14.004 2°55.451 4.4 329 12.3 102240 90
2007-04-16 08:57:28 51°14.004 2°55.451 4 332 12.3 102240 90
2007-04-16 08:57:33 51°14.004 2°55.451 4.3 328 12.3 102240 90
2007-04-16 08:57:38 51°14.004 2°55.452 4.2 328 12.3 102240 90
2007-04-16 08:57:43 51°14.004 2°55.452 4.5 328 12.3 102240 90
2007-04-16 08:57:48 51°14.004 2°55.452 4.7 301 12.3 102240 90
2007-04-16 08:57:53 51°14.004 2°55.452 4.6 327 12.3 102240 90
2007-04-16 08:57:58 51°14.004 2°55.452 4.7 330 12.3 102240 90
2007-04-16 08:58:03 51°14.004 2°55.451 3.9 333 12.3 102240 90
2007-04-16 08:58:08 51°14.004 2°55.451 4.6 331 12.3 102240 90
2007-04-16 08:58:13 51°14.004 2°55.451 4.2 333 12.3 102240 90
2007-04-16 08:58:18 51°14.004 2°55.451 4.6 329 12.3 102240 90
2007-04-16 08:58:23 51°14.004 2°55.451 4.6 331 12.3 102240 89
2007-04-16 08:58:28 51°14.004 2°55.452 4.3 329 12.3 102240 89
2007-04-16 08:58:33 51°14.004 2°55.452 4.3 335 12.3 102240 89
2007-04-16 08:58:38 51°14.004 2°55.452 4.8 330 12.3 102240 89
2007-04-16 08:58:43 51°14.004 2°55.452 4 334 12.3 102240 89
2007-04-16 08:58:48 51°14.004 2°55.452 3.9 332 12.3 102240 89
2007-04-16 08:58:53 51°14.004 2°55.452 4.4 334 12.2 102240 90
2007-04-16 08:58:58 51°14.004 2°55.452 3.8 335 12.2 102240 90
2007-04-16 08:59:03 51°14.004 2°55.452 3.7 335 12.2 102240 89
2007-04-16 08:59:08 51°14.004 2°55.451 3.5 335 12.2 102240 89
2007-04-16 08:59:13 51°14.004 2°55.451 3.3 332 12.2 102240 89
2007-04-16 08:59:18 51°14.004 2°55.451 4 332 12.2 102240 89
2007-04-16 08:59:23 51°14.004 2°55.451 3.4 330 12.3 102240 89
2007-04-16 08:59:28 51°14.004 2°55.451 4 330 12.3 102240 89
2007-04-16 08:59:33 51°14.004 2°55.451 4.1 334 12.3 102240 90
2007-04-16 08:59:38 51°14.004 2°55.451 3.8 334 12.3 102240 90
2007-04-16 08:59:43 51°14.004 2°55.451 3.8 332 12.3 102240 90
2007-04-16 08:59:48 51°14.004 2°55.451 3.6 328 12.3 102240 90
2007-04-16 08:59:53 51°14.004 2°55.451 3.7 330 12.3 102240 90
2007-04-16 08:59:58 51°14.004 2°55.451 3.1 301 12.3 102240 90
2007-04-16 09:00:03 51°14.004 2°55.45 3.4 333 12.3 102240 90
2007-04-16 09:00:08 51°14.004 2°55.45 3.4 331 12.3 102240 90
2007-04-16 09:00:13 51°14.004 2°55.45 2.8 330 12.3 102240 90
2007-04-16 09:00:18 51°14.004 2°55.45 3.5 329 12.3 102240 90
2007-04-16 09:00:23 51°14.004 2°55.45 3.7 327 12.3 102240 90
2007-04-16 09:00:28 51°14.004 2°55.45 3.2 336 12.3 102240 90
2007-04-16 09:00:33 51°14.004 2°55.45 4 330 12.3 102240 90
2007-04-16 09:00:38 51°14.004 2°55.45 3.9 336 12.3 102240 90
2007-04-16 09:00:43 51°14.004 2°55.45 3.5 331 12.3 102240 90
2007-04-16 09:00:48 51°14.004 2°55.45 3.5 334 12.3 102240 90
2007-04-16 09:00:53 51°14.004 2°55.451 3.3 332 12.3 102240 90
2007-04-16 09:00:58 51°14.004 2°55.451 3.3 334 12.3 102240 90
2007-04-16 09:01:03 51°14.004 2°55.451 4 327 12.3 102240 90
2007-04-16 09:01:08 51°14.004 2°55.451 4.2 330 12.3 102240 90
2007-04-16 09:01:13 51°14.004 2°55.451 4 329 12.3 102240 90
2007-04-16 09:01:18 51°14.004 2°55.451 3 283 12.3 102240 90
2007-04-16 09:01:23 51°14.004 2°55.451 3.3 335 12.3 102240 90
2007-04-16 09:01:28 51°14.004 2°55.451 3.9 334 12.3 102240 90
2007-04-16 09:01:33 51°14.004 2°55.451 3.8 337 12.3 102240 90
2007-04-16 09:01:38 51°14.004 2°55.451 3.7 340 12.3 102240 90
2007-04-16 09:01:43 51°14.004 2°55.451 3.8 341 12.3 102240 90
2007-04-16 09:01:48 51°14.004 2°55.451 4 333 12.3 102240 90
2007-04-16 09:01:53 51°14.004 2°55.451 4.2 335 12.3 102240 90
2007-04-16 09:01:58 51°14.003 2°55.45 4.5 333 12.3 102240 90
2007-04-16 09:02:03 51°14.003 2°55.45 4.5 335 12.3 102240 90
2007-04-16 09:02:08 51°14.003 2°55.45 3.7 336 12.3 102240 90
2007-04-16 09:02:13 51°14.003 2°55.45 3.7 339 12.3 102240 90
2007-04-16 09:02:18 51°14.003 2°55.45 3.5 335 12.3 102240 90
2007-04-16 09:02:23 51°14.003 2°55.45 3.5 338 12.3 102240 90
2007-04-16 09:02:28 51°14.003 2°55.45 3.2 339 12.3 102240 90
2007-04-16 09:02:33 51°14.003 2°55.45 3.5 336 12.4 102240 90
2007-04-16 09:02:38 51°14.003 2°55.451 3.8 340 12.4 102240 90
2007-04-16 09:02:43 51°14.003 2°55.45 3.3 335 12.4 102230 90
2007-04-16 09:02:48 51°14.003 2°55.451 3.1 334 12.4 102230 90
2007-04-16 09:02:53 51°14.003 2°55.451 2.9 336 12.4 102240 90
2007-04-16 09:02:58 51°14.003 2°55.451 3 340 12.4 102240 90
2007-04-16 09:03:03 51°14.003 2°55.451 3.6 339 12.4 102240 90
2007-04-16 09:03:08 51°14.003 2°55.451 3.3 339 12.4 102240 90
2007-04-16 09:03:13 51°14.003 2°55.451 3.3 336 12.4 102230 90
2007-04-16 09:03:18 51°14.003 2°55.451 3 279 12.4 102230 90
2007-04-16 09:03:23 51°14.003 2°55.451 2.9 333 12.4 102230 90
2007-04-16 09:03:28 51°14.003 2°55.451 3.2 331 12.4 102230 90
2007-04-16 09:03:33 51°14.003 2°55.451 2.9 337 12.4 102230 90
2007-04-16 09:03:38 51°14.003 2°55.451 3.1 334 12.4 102230 90
2007-04-16 09:03:43 51°14.003 2°55.451 3.4 337 12.4 102230 90
2007-04-16 09:03:48 51°14.003 2°55.451 4 341 12.4 102230 90
2007-04-16 09:03:53 51°14.003 2°55.451 3.8 339 12.5 102230 90
2007-04-16 09:03:58 51°14.003 2°55.451 3.1 336 12.5 102230 90
2007-04-16 09:04:03 51°14.003 2°55.45 3.2 337 12.5 102240 90
2007-04-16 09:04:08 51°14.003 2°55.45 3 336 12.5 102240 90
2007-04-16 09:04:13 51°14.003 2°55.45 3 334 12.5 102230 90
2007-04-16 09:04:18 51°14.003 2°55.45 3.5 329 12.5 102230 90
2007-04-16 09:04:23 51°14.003 2°55.45 3.5 330 12.5 102240 90
2007-04-16 09:04:28 51°14.003 2°55.45 3.8 329 12.5 102240 90
2007-04-16 09:04:33 51°14.003 2°55.449 3.9 334 12.5 102230 90
2007-04-16 09:04:38 51°14.003 2°55.449 3.5 334 12.5 102230 90
2007-04-16 09:04:43 51°14.003 2°55.449 3 334 12.5 102230 90
2007-04-16 09:04:48 51°14.003 2°55.449 3.6 303 12.5 102230 90
2007-04-16 09:04:53 51°14.003 2°55.449 3.8 328 12.5 102240 90
2007-04-16 09:04:58 51°14.003 2°55.449 4.2 330 12.5 102240 90
2007-04-16 09:05:03 51°14.003 2°55.449 4.1 319 12.5 102240 90
2007-04-16 09:05:08 51°14.003 2°55.449 4.2 328 12.5 102240 90
2007-04-16 09:05:13 51°14.003 2°55.449 4.2 329 12.5 102240 89
2007-04-16 09:05:18 51°14.004 2°55.45 3.3 285 12.5 102240 89
2007-04-16 09:05:23 51°14.004 2°55.45 3.4 340 12.5 102240 89
2007-04-16 09:05:28 51°14.004 2°55.45 3.1 344 12.5 102240 89
2007-04-16 09:05:33 51°14.004 2°55.45 2.6 330 12.5 102240 89
2007-04-16 09:05:38 51°14.004 2°55.451 3.7 326 12.5 102240 89
2007-04-16 09:05:43 51°14.004 2°55.451 2.8 324 12.5 102240 89
2007-04-16 09:05:48 51°14.004 2°55.451 3.3 303 12.5 102240 89
2007-04-16 09:05:53 51°14.004 2°55.451 3.5 326 12.5 102240 89
2007-04-16 09:05:58 51°14.004 2°55.451 3.4 329 12.5 102240 89
2007-04-16 09:06:03 51°14.004 2°55.451 3.8 331 12.5 102240 89
2007-04-16 09:06:08 51°14.004 2°55.451 3.3 331 12.5 102240 89
2007-04-16 09:06:13 51°14.003 2°55.45 3.1 328 12.6 102240 89
2007-04-16 09:06:18 51°14.003 2°55.45 2.9 277 12.6 102240 89
2007-04-16 09:06:23 51°14.003 2°55.45 3.9 323 12.5 102240 89
2007-04-16 09:06:28 51°14.003 2°55.45 3.3 338 12.5 102240 89
2007-04-16 09:06:33 51°14.003 2°55.45 3.3 334 12.5 102240 89
2007-04-16 09:06:38 51°14.003 2°55.45 3.4 323 12.5 102240 89
2007-04-16 09:06:43 51°14.003 2°55.451 2.7 326 12.5 102240 89
2007-04-16 09:06:48 51°14.002 2°55.449 3.4 338 12.5 102240 89
2007-04-16 09:06:53 51°14.001 2°55.447 3.1 331 12.5 102240 89
2007-04-16 09:06:58 51°14 2°55.446 4.1 304 12.5 102240 89
2007-04-16 09:07:03 51°14 2°55.446 3.4 332 12.5 102240 89
2007-04-16 09:07:08 51°14 2°55.445 3.8 331 12.5 102240 89
2007-04-16 09:07:13 51°14 2°55.445 3.7 327 12.5 102240 88
2007-04-16 09:07:18 51°14 2°55.446 3.5 334 12.5 102240 88
2007-04-16 09:07:23 51°14 2°55.446 3.8 336 12.5 102240 89
2007-04-16 09:07:28 51°14.001 2°55.447 3.8 340 12.5 102240 89
2007-04-16 09:07:33 51°14.001 2°55.447 3.8 339 12.5 102240 88
2007-04-16 09:07:38 51°14.001 2°55.448 3.7 335 12.5 102240 88
2007-04-16 09:07:43 51°14.001 2°55.448 3.6 337 12.5 102240 88
2007-04-16 09:07:48 51°14.001 2°55.448 3.9 331 12.5 102240 88
2007-04-16 09:07:53 51°14.001 2°55.448 3.9 334 12.5 102240 88
2007-04-16 09:07:58 51°14.001 2°55.448 3.4 329 12.5 102240 88
2007-04-16 09:08:03 51°14.001 2°55.448 3.1 329 12.5 102240 88
2007-04-16 09:08:08 51°14.001 2°55.448 3.1 331 12.5 102240 88
2007-04-16 09:08:13 51°14.001 2°55.448 2.9 329 12.5 102240 89
2007-04-16 09:08:18 51°14.001 2°55.448 3.2 285 12.5 102240 89
2007-04-16 09:08:23 51°14.001 2°55.448 3.4 329 12.5 102240 88
2007-04-16 09:08:28 51°14.001 2°55.448 3.8 327 12.5 102240 88
2007-04-16 09:08:33 51°14.001 2°55.449 3.8 336 12.5 102240 88
2007-04-16 09:08:38 51°14.001 2°55.448 3.8 329 12.5 102240 88
2007-04-16 09:08:43 51°14.001 2°55.449 3.8 329 12.5 102240 89
2007-04-16 09:08:48 51°14.001 2°55.449 3.8 331 12.5 102240 89
2007-04-16 09:08:53 51°14.001 2°55.448 4.4 331 12.5 102240 89
2007-04-16 09:08:58 51°14.001 2°55.448 4.1 333 12.5 102240 89
2007-04-16 09:09:03 51°14.001 2°55.449 3.7 332 12.5 102240 89
2007-04-16 09:09:08 51°14.001 2°55.448 4 330 12.5 102240 89
2007-04-16 09:09:13 51°14.001 2°55.448 4 330 12.5 102240 89
2007-04-16 09:09:18 51°14.001 2°55.448 3.6 304 12.5 102240 89
2007-04-16 09:09:23 51°14.001 2°55.448 3.8 332 12.5 102240 89
2007-04-16 09:09:28 51°14.001 2°55.448 4.1 329 12.5 102240 89
2007-04-16 09:09:33 51°14.001 2°55.448 3.5 330 12.5 102240 89
2007-04-16 09:09:38 51°14.001 2°55.448 3.8 334 12.5 102240 89
2007-04-16 09:09:43 51°14.001 2°55.448 4.3 334 12.5 102240 89
2007-04-16 09:09:48 51°14.001 2°55.448 4 333 12.5 102240 89
2007-04-16 09:09:53 51°14.001 2°55.448 3.9 329 12.5 102240 88
2007-04-16 09:09:58 51°14.001 2°55.448 3.8 333 12.5 102240 88
2007-04-16 09:10:03 51°14.002 2°55.449 3.5 331 12.5 102240 88
2007-04-16 09:10:08 51°14.003 2°55.45 4.1 334 12.5 102240 88
2007-04-16 09:10:13 51°14.003 2°55.45 3.9 329 12.5 102240 88
2007-04-16 09:10:18 51°14.003 2°55.449 4.4 278 12.5 102240 88
2007-04-16 09:10:23 51°14.003 2°55.449 4.3 329 12.5 102240 88
2007-04-16 09:10:28 51°14.003 2°55.449 4 327 12.5 102240 88
2007-04-16 09:10:33 51°14.003 2°55.449 4.6 329 12.5 102240 88
2007-04-16 09:10:38 51°14.003 2°55.449 4.4 329 12.5 102240 88
2007-04-16 09:10:43 51°14.003 2°55.449 5 332 12.5 102240 88
2007-04-16 09:10:48 51°14.003 2°55.449 4.1 323 12.5 102240 88
2007-04-16 09:10:53 51°14.003 2°55.449 3.6 331 12.5 102240 88
2007-04-16 09:10:58 51°14.003 2°55.449 3.7 330 12.5 102240 88
2007-04-16 09:11:03 51°14.003 2°55.449 3.5 328 12.5 102240 88
2007-04-16 09:11:08 51°14.003 2°55.449 3.8 330 12.5 102240 88
2007-04-16 09:11:13 51°14.004 2°55.45 3.8 333 12.5 102240 88
2007-04-16 09:11:18 51°14.004 2°55.451 3.5 331 12.5 102240 88
2007-04-16 09:11:23 51°14.004 2°55.45 3.3 331 12.5 102240 89
2007-04-16 09:11:28 51°14.003 2°55.449 3.7 327 12.5 102240 89
2007-04-16 09:11:34 51°14.003 2°55.449 3.7 323 12.5 102240 89
2007-04-16 09:11:38 51°14.003 2°55.449 4.6 328 12.5 102240 89
2007-04-16 09:11:43 51°14.003 2°55.449 4.5 335 12.5 102240 89
2007-04-16 09:11:48 51°14.003 2°55.449 4.7 327 12.5 102240 89
2007-04-16 09:11:53 51°14.003 2°55.449 4.4 329 12.5 102240 89
2007-04-16 09:11:58 51°14.002 2°55.448 4 302 12.5 102240 89
2007-04-16 09:12:03 51°14.002 2°55.448 4.2 328 12.5 102240 89
2007-04-16 09:12:08 51°14.002 2°55.447 3.8 330 12.5 102240 89
2007-04-16 09:12:13 51°14.002 2°55.448 4.7 330 12.5 102240 89
2007-04-16 09:12:18 51°14.002 2°55.448 5 278 12.5 102240 89
2007-04-16 09:12:23 51°14.003 2°55.448 4.1 337 12.5 102240 89
2007-04-16 09:12:28 51°14.003 2°55.449 4 334 12.5 102240 89
2007-04-16 09:12:33 51°14.003 2°55.449 4 328 12.5 102240 89
2007-04-16 09:12:38 51°14.003 2°55.449 4.4 328 12.5 102240 89
2007-04-16 09:12:43 51°14.003 2°55.449 4.2 332 12.5 102240 89
2007-04-16 09:12:48 51°14.003 2°55.449 3.6 301 12.5 102240 89
2007-04-16 09:12:53 51°14.003 2°55.449 4.1 333 12.5 102240 89
2007-04-16 09:12:58 51°14.003 2°55.449 3.9 333 12.5 102240 89
2007-04-16 09:13:03 51°14.003 2°55.449 3.9 330 12.5 102240 89
2007-04-16 09:13:08 51°14.003 2°55.449 4.5 333 12.5 102240 89
2007-04-16 09:13:13 51°14.003 2°55.449 4.5 338 12.5 102240 89
2007-04-16 09:13:18 51°14.003 2°55.449 4.8 334 12.5 102240 89
2007-04-16 09:13:23 51°14.003 2°55.449 4.2 336 12.5 102240 89
2007-04-16 09:13:28 51°14.003 2°55.449 4.1 329 12.5 102240 89
2007-04-16 09:13:33 51°14.004 2°55.449 4.5 328 12.5 102240 89
2007-04-16 09:13:38 51°14.004 2°55.45 4.9 337 12.5 102240 89
2007-04-16 09:13:43 51°14.004 2°55.45 4.5 336 12.5 102240 89
2007-04-16 09:13:48 51°14.004 2°55.45 4.1 332 12.5 102240 89
2007-04-16 09:13:53 51°14.004 2°55.45 4.2 331 12.5 102240 89
2007-04-16 09:13:58 51°14.004 2°55.45 4.3 305 12.5 102240 89
2007-04-16 09:14:03 51°14.004 2°55.45 5 334 12.5 102240 89
2007-04-16 09:14:08 51°14.004 2°55.451 5.2 333 12.5 102240 89
2007-04-16 09:14:13 51°14.004 2°55.451 4.7 329 12.5 102240 89
2007-04-16 09:14:18 51°14.004 2°55.451 4.9 279 12.5 102240 89
2007-04-16 09:14:23 51°14.004 2°55.451 5.3 333 12.5 102240 89
2007-04-16 09:14:28 51°14.004 2°55.451 4.9 335 12.5 102240 89
2007-04-16 09:14:33 51°14.004 2°55.451 5 331 12.5 102240 89
2007-04-16 09:14:38 51°14.004 2°55.451 4.8 330 12.5 102240 89
2007-04-16 09:14:43 51°14.004 2°55.451 4.8 335 12.5 102240 89
2007-04-16 09:14:48 51°14.004 2°55.451 4.5 334 12.5 102240 89
2007-04-16 09:14:53 51°14.004 2°55.451 5.1 332 12.5 102240 89
2007-04-16 09:14:58 51°14.004 2°55.451 4.4 333 12.5 102240 89
2007-04-16 09:15:03 51°14.004 2°55.451 4 331 12.5 102240 89
2007-04-16 09:15:08 51°14.004 2°55.451 4.5 333 12.5 102240 89
2007-04-16 09:15:13 51°14.004 2°55.451 4.8 335 12.5 102240 88
2007-04-16 09:15:18 51°14.004 2°55.451 4.6 336 12.5 102240 88
2007-04-16 09:15:23 51°14.004 2°55.451 4.4 333 12.5 102240 88
2007-04-16 09:15:28 51°14.004 2°55.451 4.4 332 12.5 102240 88
2007-04-16 09:15:33 51°14.004 2°55.451 4.2 330 12.4 102240 88
2007-04-16 09:15:38 51°14.004 2°55.451 4.4 332 12.4 102240 88
2007-04-16 09:15:43 51°14.004 2°55.451 3.9 334 12.5 102240 88
2007-04-16 09:15:48 51°14.004 2°55.451 3.9 324 12.5 102240 88
2007-04-16 09:15:53 51°14.004 2°55.451 3.7 328 12.5 102240 88
2007-04-16 09:15:58 51°14.004 2°55.451 3.8 302 12.5 102240 88
2007-04-16 09:16:03 51°14.004 2°55.451 4.1 332 12.4 102240 88
2007-04-16 09:16:08 51°14.004 2°55.451 3.8 333 12.4 102240 88
2007-04-16 09:16:13 51°14.004 2°55.451 4.5 334 12.4 102240 89
2007-04-16 09:16:18 51°14.004 2°55.451 4.2 278 12.4 102240 89
2007-04-16 09:16:23 51°14.004 2°55.451 4.8 337 12.5 102240 89
2007-04-16 09:16:28 51°14.004 2°55.451 3.7 335 12.5 102240 89
2007-04-16 09:16:33 51°14.004 2°55.451 3.9 328 12.5 102240 89
2007-04-16 09:16:38 51°14.004 2°55.451 3.7 331 12.5 102240 89
2007-04-16 09:16:43 51°14.004 2°55.451 4.2 334 12.5 102240 89
2007-04-16 09:16:48 51°14.004 2°55.451 4.3 331 12.5 102240 89
2007-04-16 09:16:53 51°14.004 2°55.451 4.7 336 12.5 102240 89
2007-04-16 09:16:58 51°14.004 2°55.451 4.8 329 12.5 102240 89
2007-04-16 09:17:03 51°14.004 2°55.451 4.8 330 12.5 102240 89
2007-04-16 09:17:08 51°14.004 2°55.451 4.8 332 12.5 102240 89
2007-04-16 09:17:13 51°14.004 2°55.451 5.2 331 12.5 102240 89
2007-04-16 09:17:18 51°14.004 2°55.451 5.1 330 12.5 102240 89
2007-04-16 09:17:24 51°14.004 2°55.451 4.9 332 12.5 102240 89
2007-04-16 09:17:28 51°14.003 2°55.45 4.5 328 12.5 102240 89
2007-04-16 09:17:33 51°14.004 2°55.451 4.5 331 12.5 102240 89
2007-04-16 09:17:38 51°14.004 2°55.45 4.7 330 12.5 102240 89
2007-04-16 09:17:43 51°14.003 2°55.45 5.2 330 12.5 102240 88
2007-04-16 09:17:48 51°14.003 2°55.449 4.8 335 12.5 102240 88
2007-04-16 09:17:53 51°14.003 2°55.449 4.5 329 12.5 102240 88
2007-04-16 09:17:58 51°14.003 2°55.449 4.5 331 12.5 102240 88
2007-04-16 09:18:03 51°14.003 2°55.449 4.1 332 12.5 102240 88
2007-04-16 09:18:08 51°14.003 2°55.449 4.2 330 12.5 102240 88
2007-04-16 09:18:13 51°14.003 2°55.449 4.1 331 12.4 102240 88
2007-04-16 09:18:18 51°14.003 2°55.449 4.5 279 12.4 102240 88
2007-04-16 09:18:23 51°14.003 2°55.449 4.1 329 12.4 102240 88
2007-04-16 09:18:28 51°14.003 2°55.449 4.1 328 12.4 102240 88
2007-04-16 09:18:33 51°14.003 2°55.45 4 332 12.4 102240 88
2007-04-16 09:18:38 51°14.003 2°55.45 4.1 329 12.4 102240 88
2007-04-16 09:18:43 51°14.003 2°55.45 4.5 328 12.4 102240 88
2007-04-16 09:18:48 51°14.003 2°55.45 4.3 331 12.4 102240 88
2007-04-16 09:18:53 51°14.003 2°55.45 4.2 336 12.4 102240 88
2007-04-16 09:18:58 51°14.004 2°55.45 4.2 330 12.4 102240 88
2007-04-16 09:19:03 51°14.004 2°55.45 4.1 329 12.4 102240 88
2007-04-16 09:19:08 51°14.004 2°55.45 4.2 331 12.4 102240 88
2007-04-16 09:19:13 51°14.004 2°55.451 4 331 12.4 102240 88
2007-04-16 09:19:18 51°14.004 2°55.451 4.2 331 12.4 102240 88
2007-04-16 09:19:23 51°14.004 2°55.451 4.5 331 12.4 102240 88
2007-04-16 09:19:28 51°14.004 2°55.451 3.9 335 12.4 102240 88
2007-04-16 09:19:33 51°14.004 2°55.451 3.9 331 12.4 102240 88
2007-04-16 09:19:38 51°14.004 2°55.451 3.7 302 12.4 102240 88
2007-04-16 09:19:43 51°14.004 2°55.451 3.7 325 12.4 102240 88
2007-04-16 09:19:48 51°14.004 2°55.451 4.7 327 12.4 102240 88
2007-04-16 09:19:53 51°14.004 2°55.452 4.9 328 12.4 102240 88
2007-04-16 09:19:58 51°14.004 2°55.452 5.1 302 12.4 102240 88
2007-04-16 09:20:03 51°14.004 2°55.452 5.4 332 12.4 102240 88
2007-04-16 09:20:08 51°14.004 2°55.452 4.2 334 12.4 102240 88
2007-04-16 09:20:13 51°14.004 2°55.452 3.7 332 12.4 102240 88
2007-04-16 09:20:18 51°14.004 2°55.452 3.9 279 12.4 102240 88
2007-04-16 09:20:23 51°14.004 2°55.451 4.6 328 12.4 102240 88
2007-04-16 09:20:28 51°14.004 2°55.451 3.7 332 12.4 102240 88
2007-04-16 09:20:33 51°14.004 2°55.451 3.4 330 12.4 102240 88
2007-04-16 09:20:38 51°14.004 2°55.451 4 328 12.4 102240 88
2007-04-16 09:20:43 51°14.004 2°55.451 3.6 335 12.4 102240 88
2007-04-16 09:20:48 51°14.004 2°55.451 4.2 326 12.4 102240 88
2007-04-16 09:20:53 51°14.004 2°55.451 3.4 331 12.3 102240 88
2007-04-16 09:20:59 51°14.004 2°55.451 3.6 302 12.3 102240 88
2007-04-16 09:21:03 51°14.004 2°55.451 3.7 328 12.4 102240 88
2007-04-16 09:21:08 51°14.004 2°55.451 4 301 12.4 102240 88
2007-04-16 09:21:13 51°14.004 2°55.451 4.7 329 12.4 102240 88
2007-04-16 09:21:18 51°14.004 2°55.451 4.1 277 12.4 102240 88
2007-04-16 09:21:23 51°14.004 2°55.451 4 325 12.4 102240 89
2007-04-16 09:21:28 51°14.004 2°55.451 4.5 334 12.4 102240 89
2007-04-16 09:21:33 51°14.004 2°55.451 4.2 325 12.4 102240 89
2007-04-16 09:21:38 51°14.003 2°55.451 4.4 339 12.4 102240 89
2007-04-16 09:21:43 51°14.003 2°55.451 3.7 333 12.4 102240 88
2007-04-16 09:21:48 51°14.003 2°55.451 4.2 335 12.4 102240 88
2007-04-16 09:21:53 51°14.003 2°55.451 4.9 325 12.4 102240 88
2007-04-16 09:21:58 51°14.003 2°55.451 4.7 332 12.4 102240 88
2007-04-16 09:22:03 51°14.003 2°55.451 4 331 12.4 102240 88
2007-04-16 09:22:08 51°14.003 2°55.451 4.3 333 12.4 102240 88
2007-04-16 09:22:13 51°14.003 2°55.451 4.5 329 12.4 102240 88
2007-04-16 09:22:18 51°14.003 2°55.451 4.6 280 12.4 102240 88
2007-04-16 09:22:23 51°14.003 2°55.451 4.2 329 12.4 102240 88
2007-04-16 09:22:28 51°14.004 2°55.451 4.2 331 12.4 102240 88
2007-04-16 09:22:33 51°14.004 2°55.451 3.9 338 12.4 102240 88
2007-04-16 09:22:38 51°14.004 2°55.451 3.5 338 12.4 102240 88
2007-04-16 09:22:43 51°14.003 2°55.451 4.3 329 12.4 102240 88
2007-04-16 09:22:48 51°14.003 2°55.451 4 331 12.4 102240 88
2007-04-16 09:22:53 51°14.003 2°55.451 4.1 330 12.3 102240 88
2007-04-16 09:22:58 51°14.003 2°55.451 3.5 331 12.3 102240 88
2007-04-16 09:23:03 51°14.003 2°55.451 3.8 325 12.4 102240 88
2007-04-16 09:23:08 51°14.003 2°55.451 3.4 301 12.4 102240 88
2007-04-16 09:23:13 51°14.003 2°55.451 3.6 329 12.4 102240 88
2007-04-16 09:23:18 51°14.003 2°55.451 3.3 333 12.4 102240 88
2007-04-16 09:23:23 51°14.003 2°55.451 3.8 332 12.4 102240 89
2007-04-16 09:23:28 51°14.003 2°55.451 4 329 12.4 102240 89
2007-04-16 09:23:33 51°14.003 2°55.451 3.7 328 12.4 102240 89
2007-04-16 09:23:38 51°14.003 2°55.451 3.8 333 12.4 102240 89
2007-04-16 09:23:43 51°14.004 2°55.451 4.4 334 12.4 102240 89
2007-04-16 09:23:48 51°14.004 2°55.451 4.2 325 12.4 102240 89
2007-04-16 09:23:53 51°14.004 2°55.451 4.6 327 12.4 102240 89
2007-04-16 09:23:58 51°14.004 2°55.451 4.6 335 12.4 102240 89
2007-04-16 09:24:03 51°14.004 2°55.451 5 330 12.4 102240 89
2007-04-16 09:24:08 51°14.004 2°55.451 4.2 330 12.4 102240 89
2007-04-16 09:24:13 51°14.004 2°55.451 3.9 329 12.4 102240 89
2007-04-16 09:24:18 51°14.004 2°55.451 4 279 12.4 102240 89
2007-04-16 09:24:23 51°14.004 2°55.451 3.7 323 12.4 102240 89
2007-04-16 09:24:28 51°14.004 2°55.451 3.5 332 12.4 102240 89
2007-04-16 09:24:33 51°14.004 2°55.451 3.6 329 12.4 102230 89
2007-04-16 09:24:38 51°14.004 2°55.451 4.8 332 12.4 102230 89
2007-04-16 09:24:43 51°14.004 2°55.451 4.5 330 12.4 102240 89
2007-04-16 09:24:48 51°14.003 2°55.451 4.8 332 12.4 102240 89
2007-04-16 09:24:53 51°14.004 2°55.451 4.2 330 12.4 102240 89
2007-04-16 09:24:58 51°14.004 2°55.452 4.5 331 12.4 102240 89
2007-04-16 09:25:03 51°14.004 2°55.452 4.6 335 12.4 102240 89
2007-04-16 09:25:08 51°14.004 2°55.452 4.5 330 12.4 102240 89
2007-04-16 09:25:13 51°14.004 2°55.452 4.8 335 12.4 102240 89
2007-04-16 09:25:18 51°14.004 2°55.452 4.6 331 12.4 102240 89
2007-04-16 09:25:23 51°14.004 2°55.452 4.6 331 12.4 102240 89
2007-04-16 09:25:28 51°14.004 2°55.452 4.6 327 12.4 102240 89
2007-04-16 09:25:33 51°14.004 2°55.452 3.9 336 12.4 102240 89
2007-04-16 09:25:38 51°14.004 2°55.452 3.9 333 12.4 102240 89
2007-04-16 09:25:43 51°14.004 2°55.452 4.4 333 12.4 102240 89
2007-04-16 09:25:48 51°14.004 2°55.452 4.2 328 12.4 102240 89
2007-04-16 09:25:53 51°14.004 2°55.452 3.8 332 12.4 102240 89
2007-04-16 09:25:58 51°14.004 2°55.452 4.6 333 12.4 102240 89
2007-04-16 09:26:03 51°14.004 2°55.452 3.7 328 12.4 102240 89
2007-04-16 09:26:08 51°14.004 2°55.452 4 331 12.4 102240 89
2007-04-16 09:26:13 51°14.004 2°55.452 3.9 327 12.4 102240 89
2007-04-16 09:26:18 51°14.004 2°55.452 4 279 12.4 102240 89
2007-04-16 09:26:23 51°14.003 2°55.452 4 332 12.4 102240 89
2007-04-16 09:26:28 51°14.003 2°55.452 3.7 332 12.4 102240 89
2007-04-16 09:26:33 51°14.004 2°55.452 3.4 330 12.4 102240 89
2007-04-16 09:26:38 51°14.004 2°55.452 4.4 332 12.4 102240 89
2007-04-16 09:26:43 51°14.003 2°55.452 5 336 12.4 102240 89
2007-04-16 09:26:48 51°14.004 2°55.452 4.8 336 12.4 102240 89
2007-04-16 09:26:53 51°14.004 2°55.452 4.5 331 12.4 102230 89
2007-04-16 09:26:58 51°14.004 2°55.452 4.3 333 12.4 102230 89
2007-04-16 09:27:03 51°14.004 2°55.452 3.8 335 12.4 102230 89
2007-04-16 09:27:08 51°14.004 2°55.452 4.1 332 12.4 102230 89
2007-04-16 09:27:13 51°14.004 2°55.452 5 339 12.4 102230 88
2007-04-16 09:27:18 51°14.004 2°55.452 4.3 330 12.4 102230 88
2007-04-16 09:27:23 51°14.004 2°55.452 4.7 334 12.4 102230 88
2007-04-16 09:27:28 51°14.004 2°55.452 3.9 333 12.4 102230 88
2007-04-16 09:27:33 51°14.004 2°55.452 4.1 331 12.4 102240 89
2007-04-16 09:27:38 51°14.004 2°55.452 4.6 337 12.4 102240 89
2007-04-16 09:27:43 51°14.004 2°55.452 4.1 334 12.4 102230 89
2007-04-16 09:27:48 51°14.004 2°55.452 3.7 326 12.4 102230 89
2007-04-16 09:27:53 51°14.004 2°55.452 3.6 331 12.4 102230 89
2007-04-16 09:27:58 51°14.004 2°55.452 4.1 305 12.4 102230 89
2007-04-16 09:28:03 51°14.004 2°55.452 4.9 329 12.4 102230 89
2007-04-16 09:28:08 51°14.004 2°55.452 4.7 333 12.4 102230 89
2007-04-16 09:28:13 51°14.004 2°55.452 4.5 335 12.4 102230 89
2007-04-16 09:28:18 51°14.004 2°55.452 4.5 278 12.4 102230 89
2007-04-16 09:28:23 51°14.004 2°55.452 4.8 332 12.5 102230 89
2007-04-16 09:28:29 51°14.004 2°55.452 5.1 330 12.5 102230 89
2007-04-16 09:28:33 51°14.004 2°55.452 4.5 331 12.4 102230 89
2007-04-16 09:28:38 51°14.004 2°55.452 4.9 336 12.4 102230 89
2007-04-16 09:28:43 51°14.004 2°55.452 5.2 331 12.5 102230 89
2007-04-16 09:28:48 51°14.004 2°55.452 3.8 330 12.5 102230 89
2007-04-16 09:28:53 51°14.004 2°55.452 4.6 337 12.5 102240 89
2007-04-16 09:28:58 51°14.004 2°55.452 4.2 329 12.5 102240 89
2007-04-16 09:29:03 51°14.004 2°55.452 4.5 329 12.5 102230 89
2007-04-16 09:29:08 51°14.004 2°55.452 4.6 327 12.5 102230 89
2007-04-16 09:29:13 51°14.004 2°55.452 4.3 328 12.4 102230 88
2007-04-16 09:29:18 51°14.004 2°55.452 4.8 301 12.4 102230 88
2007-04-16 09:29:23 51°14.004 2°55.452 4.5 328 12.4 102230 88
2007-04-16 09:29:28 51°14.004 2°55.452 5 330 12.4 102230 88
2007-04-16 09:29:33 51°14.004 2°55.452 4.9 332 12.4 102240 88
2007-04-16 09:29:38 51°14.004 2°55.452 4.2 332 12.4 102240 88
2007-04-16 09:29:43 51°14.004 2°55.452 4.1 335 12.4 102230 88
2007-04-16 09:29:48 51°14.004 2°55.452 3.8 332 12.4 102230 88
2007-04-16 09:29:53 51°14.004 2°55.452 4.1 329 12.4 102230 88
2007-04-16 09:29:58 51°14.004 2°55.452 4.7 324 12.4 102230 88
2007-04-16 09:30:03 51°14.004 2°55.452 4.5 328 12.4 102240 88
2007-04-16 09:30:08 51°14.004 2°55.452 3.7 333 12.4 102240 88
2007-04-16 09:30:13 51°14.004 2°55.452 3.9 333 12.4 102240 88
2007-04-16 09:30:18 51°14.004 2°55.452 3.6 285 12.4 102240 88
2007-04-16 09:30:23 51°14.004 2°55.452 3.7 328 12.4 102240 88
2007-04-16 09:30:28 51°14.004 2°55.452 3.6 334 12.4 102240 88
2007-04-16 09:30:33 51°14.004 2°55.452 4.5 327 12.4 102240 89
2007-04-16 09:30:38 51°14.004 2°55.452 4.6 331 12.4 102240 89
2007-04-16 09:30:43 51°14.004 2°55.452 3.6 331 12.4 102240 89
2007-04-16 09:30:48 51°14.004 2°55.452 4.3 329 12.4 102240 89
2007-04-16 09:30:53 51°14.004 2°55.452 4.7 330 12.4 102230 89
2007-04-16 09:30:58 51°14.004 2°55.452 4.5 329 12.4 102230 89
2007-04-16 09:31:03 51°14.004 2°55.452 4.8 327 12.4 102230 89
2007-04-16 09:31:08 51°14.004 2°55.452 4.3 333 12.4 102230 89
2007-04-16 09:31:13 51°14.004 2°55.452 4.6 331 12.4 102240 88
2007-04-16 09:31:18 51°14.004 2°55.452 4.6 333 12.4 102240 88
2007-04-16 09:31:23 51°14.004 2°55.452 4.8 333 12.4 102230 88
2007-04-16 09:31:29 51°14.005 2°55.453 4.8 328 12.4 102230 88
2007-04-16 09:31:33 51°14.004 2°55.452 4.8 333 12.4 102240 88
2007-04-16 09:31:38 51°14.004 2°55.452 4.2 331 12.4 102240 88
2007-04-16 09:31:43 51°14.004 2°55.451 4.1 331 12.4 102240 88
2007-04-16 09:31:48 51°14.003 2°55.451 4.3 331 12.4 102240 88
2007-04-16 09:31:53 51°14.003 2°55.451 4.2 333 12.4 102230 88
2007-04-16 09:31:58 51°14.003 2°55.451 4.1 327 12.4 102230 88
2007-04-16 09:32:03 51°14.003 2°55.451 4.1 331 12.4 102230 88
2007-04-16 09:32:08 51°14.005 2°55.453 4 334 12.4 102230 88
2007-04-16 09:32:13 51°14.005 2°55.452 3.5 334 12.4 102240 88
2007-04-16 09:32:18 51°14.004 2°55.452 3.6 277 12.4 102240 88
2007-04-16 09:32:23 51°14.005 2°55.452 3.6 327 12.4 102240 88
2007-04-16 09:32:28 51°14.005 2°55.453 4.6 332 12.4 102240 88
2007-04-16 09:32:33 51°14.005 2°55.453 4.6 330 12.4 102240 88
2007-04-16 09:32:38 51°14.005 2°55.452 4.6 334 12.4 102240 88
2007-04-16 09:32:43 51°14.005 2°55.452 4.4 332 12.4 102240 88
2007-04-16 09:32:48 51°14.004 2°55.452 4.5 329 12.4 102240 88
2007-04-16 09:32:53 51°14.004 2°55.451 4.4 329 12.4 102240 88
2007-04-16 09:32:58 51°14.004 2°55.451 4.5 336 12.4 102240 88
2007-04-16 09:33:03 51°14.004 2°55.451 4.6 336 12.4 102240 88
2007-04-16 09:33:08 51°14.004 2°55.451 4.3 334 12.4 102240 88
2007-04-16 09:33:13 51°14.004 2°55.45 3.8 329 12.4 102240 88
2007-04-16 09:33:18 51°14.004 2°55.451 4.3 332 12.4 102240 88
2007-04-16 09:33:23 51°14.004 2°55.45 3.8 329 12.4 102240 88
2007-04-16 09:33:28 51°14.004 2°55.451 4.4 329 12.4 102240 88
2007-04-16 09:33:33 51°14.004 2°55.45 4.3 331 12.4 102240 88
2007-04-16 09:33:38 51°14.004 2°55.45 3.6 329 12.4 102240 88
2007-04-16 09:33:43 51°14.004 2°55.45 3.7 331 12.4 102240 88
2007-04-16 09:33:48 51°14.004 2°55.45 4.1 330 12.4 102240 88
2007-04-16 09:33:53 51°14.004 2°55.451 3.6 334 12.4 102240 88
2007-04-16 09:33:58 51°14.004 2°55.451 3.9 330 12.4 102240 88
2007-04-16 09:34:03 51°14.004 2°55.451 3.7 334 12.4 102240 88
2007-04-16 09:34:08 51°14.004 2°55.451 4 331 12.4 102240 88
2007-04-16 09:34:13 51°14.004 2°55.45 4 329 12.4 102240 88
2007-04-16 09:34:19 51°14.004 2°55.451 3.6 284 12.4 102240 88
2007-04-16 09:34:23 51°14.004 2°55.451 3.3 331 12.4 102240 88
2007-04-16 09:34:28 51°14.004 2°55.451 4 334 12.4 102240 88
2007-04-16 09:34:33 51°14.005 2°55.451 4.6 335 12.4 102240 88
2007-04-16 09:34:38 51°14.005 2°55.451 4.7 333 12.4 102240 88
2007-04-16 09:34:43 51°14.004 2°55.451 4.4 337 12.4 102240 88
2007-04-16 09:34:48 51°14.004 2°55.451 3.6 328 12.4 102240 88
2007-04-16 09:34:53 51°14.004 2°55.451 3.5 330 12.4 102240 89
2007-04-16 09:34:58 51°14.004 2°55.45 4.3 332 12.4 102240 89
2007-04-16 09:35:03 51°14.004 2°55.45 4.1 333 12.4 102240 88
2007-04-16 09:35:08 51°14.004 2°55.45 4.5 331 12.4 102240 88
2007-04-16 09:35:13 51°14.004 2°55.45 4.2 332 12.4 102240 88
2007-04-16 09:35:18 51°14.004 2°55.45 4.9 329 12.4 102240 88
2007-04-16 09:35:23 51°14.004 2°55.45 4.2 331 12.4 102240 88
2007-04-16 09:35:28 51°14.003 2°55.45 4.4 332 12.4 102240 88
2007-04-16 09:35:33 51°14.003 2°55.45 4.2 334 12.4 102240 88
2007-04-16 09:35:38 51°14.003 2°55.45 4.4 333 12.4 102240 88
2007-04-16 09:35:43 51°14.003 2°55.45 4.9 332 12.4 102240 88
2007-04-16 09:35:48 51°14.003 2°55.45 4.9 333 12.4 102240 88
2007-04-16 09:35:53 51°14.003 2°55.45 4.1 334 12.4 102240 88
2007-04-16 09:35:58 51°14.003 2°55.45 4.1 333 12.4 102240 88
2007-04-16 09:36:03 51°14.003 2°55.45 3.6 331 12.4 102240 88
2007-04-16 09:36:08 51°14.003 2°55.45 3.9 336 12.4 102240 88
2007-04-16 09:36:13 51°14.003 2°55.45 3.9 334 12.4 102240 88
2007-04-16 09:36:18 51°14.003 2°55.45 3.8 279 12.4 102240 88
2007-04-16 09:36:23 51°14.003 2°55.45 4.4 332 12.4 102240 88
2007-04-16 09:36:28 51°14.003 2°55.45 4.4 329 12.4 102240 88
2007-04-16 09:36:33 51°14.003 2°55.45 4.3 327 12.4 102240 88
2007-04-16 09:36:38 51°14.003 2°55.45 4.1 335 12.4 102240 88
2007-04-16 09:36:43 51°14.003 2°55.45 3.6 334 12.4 102240 88
2007-04-16 09:36:48 51°14.003 2°55.45 4.7 334 12.4 102240 88
2007-04-16 09:36:53 51°14.003 2°55.45 4.5 333 12.4 102240 88
2007-04-16 09:36:58 51°14.003 2°55.45 5 332 12.4 102240 88
2007-04-16 09:37:03 51°14.003 2°55.45 5 333 12.4 102240 88
2007-04-16 09:37:08 51°14.003 2°55.45 5.1 333 12.4 102240 88
2007-04-16 09:37:13 51°14.003 2°55.45 4.5 332 12.4 102240 88
2007-04-16 09:37:18 51°14.003 2°55.45 4.5 335 12.4 102240 88
2007-04-16 09:37:23 51°14.003 2°55.45 4.2 336 12.4 102240 88
2007-04-16 09:37:28 51°14.003 2°55.451 4.5 335 12.4 102240 88
2007-04-16 09:37:33 51°14.005 2°55.452 4.7 335 12.4 102240 88
2007-04-16 09:37:38 51°14.005 2°55.452 4.1 334 12.4 102240 88
2007-04-16 09:37:43 51°14.006 2°55.453 4 331 12.4 102240 88
2007-04-16 09:37:48 51°14.007 2°55.454 4.2 337 12.4 102240 88
2007-04-16 09:37:53 51°14.007 2°55.454 3.9 336 12.4 102240 88
2007-04-16 09:37:58 51°14.007 2°55.454 3.9 334 12.4 102240 88
2007-04-16 09:38:03 51°14.007 2°55.454 3.5 338 12.4 102240 88
2007-04-16 09:38:08 51°14.006 2°55.453 3.5 330 12.4 102240 88
2007-04-16 09:38:13 51°14.006 2°55.453 3.5 334 12.4 102240 88
2007-04-16 09:38:18 51°14.006 2°55.453 3.4 278 12.4 102240 88
2007-04-16 09:38:23 51°14.005 2°55.452 3.5 335 12.4 102240 88
2007-04-16 09:38:28 51°14.004 2°55.452 3.4 302 12.4 102240 88
2007-04-16 09:38:33 51°14.003 2°55.451 4 332 12.4 102240 88
2007-04-16 09:38:38 51°14.003 2°55.45 3.6 334 12.4 102240 88
2007-04-16 09:38:43 51°14.002 2°55.45 3.4 327 12.5 102240 88
2007-04-16 09:38:48 51°14.003 2°55.45 4.7 334 12.5 102240 88
2007-04-16 09:38:53 51°14.003 2°55.45 4.5 338 12.5 102240 89
2007-04-16 09:38:58 51°14.003 2°55.45 4.4 332 12.5 102240 89
2007-04-16 09:39:03 51°14.003 2°55.451 4.4 332 12.5 102240 89
2007-04-16 09:39:08 51°14.003 2°55.451 3.9 330 12.5 102240 89
2007-04-16 09:39:13 51°14.003 2°55.451 4.1 337 12.5 102240 88
2007-04-16 09:39:18 51°14.003 2°55.451 4.2 339 12.5 102240 88
2007-04-16 09:39:23 51°14.003 2°55.451 4 333 12.5 102240 88
2007-04-16 09:39:28 51°14.003 2°55.451 4.1 336 12.5 102240 88
2007-04-16 09:39:33 51°14.003 2°55.451 4.6 336 12.5 102240 88
2007-04-16 09:39:38 51°14.003 2°55.451 4.6 335 12.5 102240 88
2007-04-16 09:39:43 51°14.003 2°55.451 4.4 333 12.5 102240 88
2007-04-16 09:39:48 51°14.003 2°55.451 4.5 337 12.5 102240 88
2007-04-16 09:39:53 51°14.003 2°55.451 4.2 338 12.5 102240 88
2007-04-16 09:39:58 51°14.003 2°55.451 4.2 333 12.5 102240 88
2007-04-16 09:40:03 51°14.003 2°55.451 4.6 337 12.5 102240 88
2007-04-16 09:40:08 51°14.003 2°55.451 4.3 338 12.5 102240 88
2007-04-16 09:40:13 51°14.003 2°55.451 4.1 331 12.5 102230 88
2007-04-16 09:40:18 51°14.003 2°55.45 3.8 277 12.5 102230 88
2007-04-16 09:40:23 51°14.003 2°55.45 4.3 337 12.5 102230 88
2007-04-16 09:40:28 51°14.004 2°55.451 4.4 331 12.5 102230 88
2007-04-16 09:40:33 51°14.003 2°55.451 4.4 333 12.5 102230 88
2007-04-16 09:40:38 51°14.003 2°55.451 4.2 332 12.5 102230 88
2007-04-16 09:40:43 51°14.003 2°55.451 4.2 332 12.5 102230 88
2007-04-16 09:40:48 51°14.003 2°55.451 4.2 335 12.5 102230 88
2007-04-16 09:40:54 51°14.003 2°55.451 4.3 334 12.5 102230 88
2007-04-16 09:40:58 51°14.003 2°55.451 3.6 337 12.5 102230 88
2007-04-16 09:41:03 51°14.003 2°55.451 4.2 334 12.5 102230 88
2007-04-16 09:41:08 51°14.003 2°55.451 4 333 12.5 102230 88
2007-04-16 09:41:13 51°14.003 2°55.451 4.3 332 12.5 102240 88
2007-04-16 09:41:18 51°14.003 2°55.451 4.4 338 12.5 102240 88
2007-04-16 09:41:23 51°14.003 2°55.451 3.7 342 12.5 102240 88
2007-04-16 09:41:28 51°14.003 2°55.451 3.6 349 12.5 102240 88
2007-04-16 09:41:33 51°14.003 2°55.451 3.1 336 12.5 102240 88
2007-04-16 09:41:38 51°14.003 2°55.451 3.6 333 12.5 102240 88
2007-04-16 09:41:43 51°14.003 2°55.451 3.6 326 12.4 102230 88
2007-04-16 09:41:49 51°14.003 2°55.451 3.2 330 12.4 102230 88
2007-04-16 09:41:53 51°14.003 2°55.451 3.3 325 12.4 102230 87
2007-04-16 09:41:58 51°14.003 2°55.45 3.4 308 12.4 102230 87
2007-04-16 09:42:03 51°14.003 2°55.45 3.6 324 12.4 102230 87
2007-04-16 09:42:08 51°14.003 2°55.45 3.7 328 12.4 102230 87
2007-04-16 09:42:13 51°14.003 2°55.45 3.6 335 12.4 102240 88
2007-04-16 09:42:18 51°14.003 2°55.45 3.2 283 12.4 102240 88
2007-04-16 09:42:23 51°14.003 2°55.45 3.1 335 12.4 102230 88
2007-04-16 09:42:28 51°14.003 2°55.45 4.5 307 12.4 102230 88
2007-04-16 09:42:33 51°14.002 2°55.45 3.6 325 12.4 102230 88
2007-04-16 09:42:38 51°14.002 2°55.45 4 326 12.4 102230 88
2007-04-16 09:42:43 51°14.002 2°55.45 3.5 326 12.4 102240 88
2007-04-16 09:42:48 51°14.002 2°55.45 3.4 329 12.4 102240 88
2007-04-16 09:42:53 51°14.002 2°55.45 3.7 338 12.4 102240 88
2007-04-16 09:42:58 51°14.002 2°55.45 3.8 336 12.4 102240 88
2007-04-16 09:43:03 51°14.003 2°55.45 4.4 333 12.4 102230 88
2007-04-16 09:43:08 51°14.003 2°55.45 5.1 333 12.4 102230 88
2007-04-16 09:43:13 51°14.003 2°55.45 4.7 335 12.4 102230 88
2007-04-16 09:43:18 51°14.003 2°55.45 4.5 302 12.4 102230 88
2007-04-16 09:43:23 51°14.003 2°55.45 4.5 331 12.5 102230 88
2007-04-16 09:43:28 51°14.003 2°55.45 4.7 338 12.5 102230 88
2007-04-16 09:43:33 51°14.003 2°55.45 4 333 12.5 102230 88
2007-04-16 09:43:38 51°14.003 2°55.45 4.5 336 12.5 102230 88
2007-04-16 09:43:43 51°14.003 2°55.45 4.9 334 12.5 102230 88
2007-04-16 09:43:48 51°14.003 2°55.45 4.5 337 12.5 102230 88
2007-04-16 09:43:53 51°14.003 2°55.45 4.2 334 12.5 102230 88
2007-04-16 09:43:58 51°14.003 2°55.451 4.6 333 12.5 102230 88
2007-04-16 09:44:04 51°14.003 2°55.451 4.5 341 12.4 102230 88
2007-04-16 09:44:08 51°14.003 2°55.451 3.9 336 12.4 102230 88
2007-04-16 09:44:13 51°14.004 2°55.451 3.7 334 12.5 102230 88
2007-04-16 09:44:18 51°14.004 2°55.452 3.5 278 12.5 102230 88
2007-04-16 09:44:23 51°14.005 2°55.452 4.2 334 12.4 102230 88
2007-04-16 09:44:29 51°14.005 2°55.452 3.9 333 12.4 102230 88
2007-04-16 09:44:33 51°14.005 2°55.452 4 337 12.5 102230 88
2007-04-16 09:44:38 51°14.005 2°55.452 4.8 334 12.5 102230 88
2007-04-16 09:44:43 51°14.005 2°55.452 5 334 12.4 102230 88
2007-04-16 09:44:48 51°14.005 2°55.452 4.2 335 12.4 102230 88
2007-04-16 09:44:53 51°14.005 2°55.452 3.4 332 12.5 102230 88
2007-04-16 09:44:58 51°14.005 2°55.452 3.5 329 12.5 102230 88
2007-04-16 09:45:03 51°14.005 2°55.452 3.8 335 12.5 102230 88
2007-04-16 09:45:08 51°14.005 2°55.452 3.5 335 12.5 102230 88
2007-04-16 09:45:13 51°14.005 2°55.452 3.6 335 12.5 102230 88
2007-04-16 09:45:18 51°14.005 2°55.452 3.1 332 12.5 102230 88
2007-04-16 09:45:23 51°14.005 2°55.452 3.4 329 12.5 102230 88
2007-04-16 09:45:28 51°14.005 2°55.452 3.3 335 12.5 102230 88
2007-04-16 09:45:33 51°14.005 2°55.452 3.6 334 12.5 102230 88
2007-04-16 09:45:38 51°14.005 2°55.452 3 334 12.5 102230 88